sensor_id;sensor_type;location;lat;lon;timestamp;P1;durP1;ratioP1;P2;durP2;ratioP2
45932;SDS011;51011;46.790;17.184;2022-07-06T00:01:05;9.05;;;8.25;;
45932;SDS011;51011;46.790;17.184;2022-07-06T00:03:31;8.43;;;7.55;;
45932;SDS011;51011;46.790;17.184;2022-07-06T00:05:56;8.88;;;7.93;;
45932;SDS011;51011;46.790;17.184;2022-07-06T00:08:22;8.73;;;7.68;;
45932;SDS011;51011;46.790;17.184;2022-07-06T00:10:48;7.57;;;6.90;;
45932;SDS011;51011;46.790;17.184;2022-07-06T00:13:13;8.00;;;7.30;;
45932;SDS011;51011;46.790;17.184;2022-07-06T00:15:38;8.55;;;7.82;;
45932;SDS011;51011;46.790;17.184;2022-07-06T00:18:04;9.20;;;7.80;;
45932;SDS011;51011;46.790;17.184;2022-07-06T00:20:30;9.32;;;8.43;;
45932;SDS011;51011;46.790;17.184;2022-07-06T00:22:55;8.60;;;7.75;;
45932;SDS011;51011;46.790;17.184;2022-07-06T00:25:21;9.10;;;8.30;;
45932;SDS011;51011;46.790;17.184;2022-07-06T00:27:46;9.32;;;8.52;;
45932;SDS011;51011;46.790;17.184;2022-07-06T00:30:12;8.70;;;8.00;;
45932;SDS011;51011;46.790;17.184;2022-07-06T00:32:37;8.95;;;8.05;;
45932;SDS011;51011;46.790;17.184;2022-07-06T00:35:03;8.77;;;7.72;;
45932;SDS011;51011;46.790;17.184;2022-07-06T00:37:29;8.70;;;7.70;;
45932;SDS011;51011;46.790;17.184;2022-07-06T00:39:54;8.35;;;7.65;;
45932;SDS011;51011;46.790;17.184;2022-07-06T00:42:20;9.18;;;8.38;;
45932;SDS011;51011;46.790;17.184;2022-07-06T00:44:45;8.60;;;7.60;;
45932;SDS011;51011;46.790;17.184;2022-07-06T00:47:11;9.48;;;7.18;;
45932;SDS011;51011;46.790;17.184;2022-07-06T00:49:37;7.95;;;7.25;;
45932;SDS011;51011;46.790;17.184;2022-07-06T00:52:21;9.18;;;8.38;;
45932;SDS011;51011;46.790;17.184;2022-07-06T00:54:47;9.98;;;8.88;;
45932;SDS011;51011;46.790;17.184;2022-07-06T00:57:12;9.40;;;8.50;;
45932;SDS011;51011;46.790;17.184;2022-07-06T00:59:38;9.70;;;8.32;;
45932;SDS011;51011;46.790;17.184;2022-07-06T01:02:04;8.85;;;8.07;;
45932;SDS011;51011;46.790;17.184;2022-07-06T01:04:29;9.52;;;8.38;;
45932;SDS011;51011;46.790;17.184;2022-07-06T01:06:55;9.32;;;8.50;;
45932;SDS011;51011;46.790;17.184;2022-07-06T01:09:22;10.60;;;8.32;;
45932;SDS011;51011;46.790;17.184;2022-07-06T01:11:48;9.27;;;8.23;;
45932;SDS011;51011;46.790;17.184;2022-07-06T01:14:14;8.90;;;8.10;;
45932;SDS011;51011;46.790;17.184;2022-07-06T01:16:40;9.32;;;8.43;;
45932;SDS011;51011;46.790;17.184;2022-07-06T01:19:06;8.90;;;7.88;;
45932;SDS011;51011;46.790;17.184;2022-07-06T01:21:31;8.80;;;8.00;;
45932;SDS011;51011;46.790;17.184;2022-07-06T01:23:57;8.85;;;8.05;;
45932;SDS011;51011;46.790;17.184;2022-07-06T01:26:22;8.02;;;7.32;;
45932;SDS011;51011;46.790;17.184;2022-07-06T01:28:49;8.60;;;7.88;;
45932;SDS011;51011;46.790;17.184;2022-07-06T01:31:23;9.65;;;8.15;;
45932;SDS011;51011;46.790;17.184;2022-07-06T01:36:16;8.88;;;8.00;;
45932;SDS011;51011;46.790;17.184;2022-07-06T01:38:46;8.98;;;8.05;;
45932;SDS011;51011;46.790;17.184;2022-07-06T01:41:12;8.60;;;7.80;;
45932;SDS011;51011;46.790;17.184;2022-07-06T01:43:38;8.20;;;7.50;;
45932;SDS011;51011;46.790;17.184;2022-07-06T01:46:04;8.80;;;7.95;;
45932;SDS011;51011;46.790;17.184;2022-07-06T01:48:30;8.48;;;7.72;;
45932;SDS011;51011;46.790;17.184;2022-07-06T01:50:55;8.85;;;7.95;;
45932;SDS011;51011;46.790;17.184;2022-07-06T01:53:22;9.02;;;8.23;;
45932;SDS011;51011;46.790;17.184;2022-07-06T01:55:47;9.50;;;8.35;;
45932;SDS011;51011;46.790;17.184;2022-07-06T01:58:13;8.98;;;8.07;;
45932;SDS011;51011;46.790;17.184;2022-07-06T02:00:39;8.15;;;7.38;;
45932;SDS011;51011;46.790;17.184;2022-07-06T02:03:04;9.25;;;7.60;;
45932;SDS011;51011;46.790;17.184;2022-07-06T02:05:29;8.82;;;7.88;;
45932;SDS011;51011;46.790;17.184;2022-07-06T02:07:55;8.93;;;7.72;;
45932;SDS011;51011;46.790;17.184;2022-07-06T02:10:20;7.57;;;6.78;;
45932;SDS011;51011;46.790;17.184;2022-07-06T02:12:47;8.07;;;7.40;;
45932;SDS011;51011;46.790;17.184;2022-07-06T02:15:12;8.73;;;7.78;;
45932;SDS011;51011;46.790;17.184;2022-07-06T02:17:39;8.38;;;7.45;;
45932;SDS011;51011;46.790;17.184;2022-07-06T02:20:05;8.93;;;7.68;;
45932;SDS011;51011;46.790;17.184;2022-07-06T02:22:31;8.20;;;7.20;;
45932;SDS011;51011;46.790;17.184;2022-07-06T02:24:57;8.10;;;7.40;;
45932;SDS011;51011;46.790;17.184;2022-07-06T02:27:22;8.38;;;7.57;;
45932;SDS011;51011;46.790;17.184;2022-07-06T02:29:48;8.95;;;8.15;;
45932;SDS011;51011;46.790;17.184;2022-07-06T02:32:13;9.05;;;8.25;;
45932;SDS011;51011;46.790;17.184;2022-07-06T02:34:39;8.77;;;7.88;;
45932;SDS011;51011;46.790;17.184;2022-07-06T02:37:05;9.18;;;8.38;;
45932;SDS011;51011;46.790;17.184;2022-07-06T02:39:30;8.10;;;7.40;;
45932;SDS011;51011;46.790;17.184;2022-07-06T02:41:56;8.10;;;7.40;;
45932;SDS011;51011;46.790;17.184;2022-07-06T02:44:22;8.30;;;7.60;;
45932;SDS011;51011;46.790;17.184;2022-07-06T02:46:47;9.25;;;8.25;;
45932;SDS011;51011;46.790;17.184;2022-07-06T02:49:13;8.88;;;7.97;;
45932;SDS011;51011;46.790;17.184;2022-07-06T02:51:39;8.80;;;8.10;;
45932;SDS011;51011;46.790;17.184;2022-07-06T02:54:04;9.88;;;8.88;;
45932;SDS011;51011;46.790;17.184;2022-07-06T02:56:30;9.60;;;8.65;;
45932;SDS011;51011;46.790;17.184;2022-07-06T02:58:56;9.85;;;8.95;;
45932;SDS011;51011;46.790;17.184;2022-07-06T03:01:22;9.48;;;8.63;;
45932;SDS011;51011;46.790;17.184;2022-07-06T03:03:48;11.50;;;8.95;;
45932;SDS011;51011;46.790;17.184;2022-07-06T03:06:13;10.18;;;9.23;;
45932;SDS011;51011;46.790;17.184;2022-07-06T03:08:39;10.57;;;9.57;;
45932;SDS011;51011;46.790;17.184;2022-07-06T03:11:05;10.13;;;9.13;;
45932;SDS011;51011;46.790;17.184;2022-07-06T03:13:30;9.25;;;8.45;;
45932;SDS011;51011;46.790;17.184;2022-07-06T03:15:56;9.52;;;8.63;;
45932;SDS011;51011;46.790;17.184;2022-07-06T03:18:22;10.25;;;8.27;;
45932;SDS011;51011;46.790;17.184;2022-07-06T03:20:48;10.23;;;9.25;;
45932;SDS011;51011;46.790;17.184;2022-07-06T03:23:16;11.70;;;10.18;;
45932;SDS011;51011;46.790;17.184;2022-07-06T03:25:41;11.00;;;10.00;;
45932;SDS011;51011;46.790;17.184;2022-07-06T03:28:07;11.70;;;10.70;;
45932;SDS011;51011;46.790;17.184;2022-07-06T03:30:33;11.93;;;10.73;;
45932;SDS011;51011;46.790;17.184;2022-07-06T03:32:59;11.85;;;10.75;;
45932;SDS011;51011;46.790;17.184;2022-07-06T03:35:27;12.57;;;11.35;;
45932;SDS011;51011;46.790;17.184;2022-07-06T03:37:54;11.93;;;10.82;;
45932;SDS011;51011;46.790;17.184;2022-07-06T03:40:22;12.93;;;11.82;;
45932;SDS011;51011;46.790;17.184;2022-07-06T03:42:49;12.82;;;11.63;;
45932;SDS011;51011;46.790;17.184;2022-07-06T03:45:15;12.68;;;11.23;;
45932;SDS011;51011;46.790;17.184;2022-07-06T03:47:40;13.30;;;12.10;;
45932;SDS011;51011;46.790;17.184;2022-07-06T03:50:08;14.52;;;11.13;;
45932;SDS011;51011;46.790;17.184;2022-07-06T03:52:34;13.75;;;12.40;;
45932;SDS011;51011;46.790;17.184;2022-07-06T03:55:00;12.75;;;11.57;;
45932;SDS011;51011;46.790;17.184;2022-07-06T03:57:28;13.23;;;11.93;;
45932;SDS011;51011;46.790;17.184;2022-07-06T03:59:56;13.23;;;12.13;;
45932;SDS011;51011;46.790;17.184;2022-07-06T04:02:23;13.32;;;12.02;;
45932;SDS011;51011;46.790;17.184;2022-07-06T04:04:50;13.38;;;12.05;;
45932;SDS011;51011;46.790;17.184;2022-07-06T04:07:16;12.60;;;11.45;;
45932;SDS011;51011;46.790;17.184;2022-07-06T04:09:42;15.25;;;11.15;;
45932;SDS011;51011;46.790;17.184;2022-07-06T04:12:08;11.88;;;10.88;;
45932;SDS011;51011;46.790;17.184;2022-07-06T04:14:34;13.00;;;11.73;;
45932;SDS011;51011;46.790;17.184;2022-07-06T04:17:02;11.90;;;10.80;;
45932;SDS011;51011;46.790;17.184;2022-07-06T04:19:47;11.55;;;10.32;;
45932;SDS011;51011;46.790;17.184;2022-07-06T04:22:12;12.20;;;10.82;;
45932;SDS011;51011;46.790;17.184;2022-07-06T04:24:38;12.05;;;10.85;;
45932;SDS011;51011;46.790;17.184;2022-07-06T04:27:04;10.98;;;9.88;;
45932;SDS011;51011;46.790;17.184;2022-07-06T04:29:31;10.90;;;9.90;;
45932;SDS011;51011;46.790;17.184;2022-07-06T04:31:56;10.65;;;9.60;;
45932;SDS011;51011;46.790;17.184;2022-07-06T04:34:22;11.20;;;10.27;;
45932;SDS011;51011;46.790;17.184;2022-07-06T04:36:47;10.32;;;9.40;;
45932;SDS011;51011;46.790;17.184;2022-07-06T04:39:13;10.77;;;9.77;;
45932;SDS011;51011;46.790;17.184;2022-07-06T04:41:38;10.68;;;9.65;;
45932;SDS011;51011;46.790;17.184;2022-07-06T04:44:05;9.90;;;8.75;;
45932;SDS011;51011;46.790;17.184;2022-07-06T04:46:31;10.68;;;9.65;;
45932;SDS011;51011;46.790;17.184;2022-07-06T04:48:57;10.15;;;8.90;;
45932;SDS011;51011;46.790;17.184;2022-07-06T04:51:27;9.90;;;8.93;;
45932;SDS011;51011;46.790;17.184;2022-07-06T04:53:53;9.60;;;8.70;;
45932;SDS011;51011;46.790;17.184;2022-07-06T04:56:20;9.18;;;8.32;;
45932;SDS011;51011;46.790;17.184;2022-07-06T04:58:47;10.13;;;8.25;;
45932;SDS011;51011;46.790;17.184;2022-07-06T05:01:15;9.77;;;8.30;;
45932;SDS011;51011;46.790;17.184;2022-07-06T05:03:41;9.05;;;8.25;;
45932;SDS011;51011;46.790;17.184;2022-07-06T05:06:09;9.10;;;8.30;;
45932;SDS011;51011;46.790;17.184;2022-07-06T05:08:34;8.88;;;8.02;;
45932;SDS011;51011;46.790;17.184;2022-07-06T05:11:00;9.55;;;8.38;;
45932;SDS011;51011;46.790;17.184;2022-07-06T05:13:25;10.32;;;8.20;;
45932;SDS011;51011;46.790;17.184;2022-07-06T05:15:51;8.50;;;7.60;;
45932;SDS011;51011;46.790;17.184;2022-07-06T05:18:17;7.78;;;7.07;;
45932;SDS011;51011;46.790;17.184;2022-07-06T05:20:43;12.05;;;8.25;;
45932;SDS011;51011;46.790;17.184;2022-07-06T05:23:09;7.70;;;6.90;;
45932;SDS011;51011;46.790;17.184;2022-07-06T05:25:36;8.05;;;7.00;;
45932;SDS011;51011;46.790;17.184;2022-07-06T05:28:02;7.25;;;6.50;;
45932;SDS011;51011;46.790;17.184;2022-07-06T05:30:28;8.82;;;6.75;;
45932;SDS011;51011;46.790;17.184;2022-07-06T05:32:54;7.68;;;7.00;;
45932;SDS011;51011;46.790;17.184;2022-07-06T05:35:20;7.40;;;6.32;;
45932;SDS011;51011;46.790;17.184;2022-07-06T05:37:45;7.57;;;6.78;;
45932;SDS011;51011;46.790;17.184;2022-07-06T05:40:11;8.43;;;6.50;;
45932;SDS011;51011;46.790;17.184;2022-07-06T05:42:37;7.65;;;6.30;;
45932;SDS011;51011;46.790;17.184;2022-07-06T05:45:03;6.97;;;6.30;;
45932;SDS011;51011;46.790;17.184;2022-07-06T05:47:30;7.50;;;6.20;;
45932;SDS011;51011;46.790;17.184;2022-07-06T05:50:15;7.07;;;6.47;;
45932;SDS011;51011;46.790;17.184;2022-07-06T05:52:59;6.68;;;6.07;;
45932;SDS011;51011;46.790;17.184;2022-07-06T05:55:28;7.03;;;6.15;;
45932;SDS011;51011;46.790;17.184;2022-07-06T05:57:55;6.32;;;5.72;;
45932;SDS011;51011;46.790;17.184;2022-07-06T06:00:23;7.28;;;6.07;;
45932;SDS011;51011;46.790;17.184;2022-07-06T06:02:52;6.63;;;5.80;;
45932;SDS011;51011;46.790;17.184;2022-07-06T06:05:19;6.88;;;5.53;;
45932;SDS011;51011;46.790;17.184;2022-07-06T06:07:47;8.68;;;5.70;;
45932;SDS011;51011;46.790;17.184;2022-07-06T06:10:15;6.35;;;5.00;;
45932;SDS011;51011;46.790;17.184;2022-07-06T06:12:41;5.93;;;5.30;;
45932;SDS011;51011;46.790;17.184;2022-07-06T06:15:08;6.35;;;4.93;;
45932;SDS011;51011;46.790;17.184;2022-07-06T06:17:35;5.70;;;5.20;;
45932;SDS011;51011;46.790;17.184;2022-07-06T06:20:01;5.90;;;5.40;;
45932;SDS011;51011;46.790;17.184;2022-07-06T06:22:27;8.18;;;5.20;;
45932;SDS011;51011;46.790;17.184;2022-07-06T06:24:53;7.60;;;5.10;;
45932;SDS011;51011;46.790;17.184;2022-07-06T06:27:19;5.60;;;5.10;;
45932;SDS011;51011;46.790;17.184;2022-07-06T06:29:45;6.80;;;5.03;;
45932;SDS011;51011;46.790;17.184;2022-07-06T06:32:11;5.80;;;4.90;;
45932;SDS011;51011;46.790;17.184;2022-07-06T06:34:37;5.45;;;4.95;;
45932;SDS011;51011;46.790;17.184;2022-07-06T06:37:03;8.98;;;5.22;;
45932;SDS011;51011;46.790;17.184;2022-07-06T06:39:29;5.75;;;4.80;;
45932;SDS011;51011;46.790;17.184;2022-07-06T06:41:54;5.70;;;4.68;;
45932;SDS011;51011;46.790;17.184;2022-07-06T06:44:20;5.40;;;4.72;;
45932;SDS011;51011;46.790;17.184;2022-07-06T06:46:51;4.63;;;4.18;;
45932;SDS011;51011;46.790;17.184;2022-07-06T06:49:19;4.95;;;4.50;;
45932;SDS011;51011;46.790;17.184;2022-07-06T06:51:44;5.55;;;4.68;;
45932;SDS011;51011;46.790;17.184;2022-07-06T06:54:10;4.95;;;4.47;;
45932;SDS011;51011;46.790;17.184;2022-07-06T06:56:39;5.43;;;4.50;;
45932;SDS011;51011;46.790;17.184;2022-07-06T06:59:05;5.90;;;4.35;;
45932;SDS011;51011;46.790;17.184;2022-07-06T07:01:34;5.05;;;4.10;;
45932;SDS011;51011;46.790;17.184;2022-07-06T07:04:00;5.53;;;4.30;;
45932;SDS011;51011;46.790;17.184;2022-07-06T07:06:25;5.13;;;4.03;;
45932;SDS011;51011;46.790;17.184;2022-07-06T07:08:51;5.30;;;3.90;;
45932;SDS011;51011;46.790;17.184;2022-07-06T07:11:16;4.22;;;3.65;;
45932;SDS011;51011;46.790;17.184;2022-07-06T07:13:42;5.72;;;3.67;;
45932;SDS011;51011;46.790;17.184;2022-07-06T07:16:07;3.75;;;3.30;;
45932;SDS011;51011;46.790;17.184;2022-07-06T07:18:33;7.28;;;3.15;;
45932;SDS011;51011;46.790;17.184;2022-07-06T07:20:58;4.53;;;3.15;;
45932;SDS011;51011;46.790;17.184;2022-07-06T07:23:24;6.70;;;3.47;;
45932;SDS011;51011;46.790;17.184;2022-07-06T07:25:49;6.25;;;3.40;;
45932;SDS011;51011;46.790;17.184;2022-07-06T07:28:15;5.15;;;3.35;;
45932;SDS011;51011;46.790;17.184;2022-07-06T07:30:41;5.38;;;3.40;;
45932;SDS011;51011;46.790;17.184;2022-07-06T07:33:06;4.70;;;3.00;;
45932;SDS011;51011;46.790;17.184;2022-07-06T07:35:32;3.60;;;2.90;;
45932;SDS011;51011;46.790;17.184;2022-07-06T07:37:57;6.38;;;2.90;;
45932;SDS011;51011;46.790;17.184;2022-07-06T07:40:23;5.32;;;2.85;;
45932;SDS011;51011;46.790;17.184;2022-07-06T07:42:48;4.53;;;3.38;;
45932;SDS011;51011;46.790;17.184;2022-07-06T07:45:14;5.95;;;2.90;;
45932;SDS011;51011;46.790;17.184;2022-07-06T07:47:39;4.75;;;3.00;;
45932;SDS011;51011;46.790;17.184;2022-07-06T07:50:05;5.10;;;3.35;;
45932;SDS011;51011;46.790;17.184;2022-07-06T07:52:34;4.25;;;2.90;;
45932;SDS011;51011;46.790;17.184;2022-07-06T07:54:59;4.82;;;3.17;;
45932;SDS011;51011;46.790;17.184;2022-07-06T07:57:25;3.90;;;3.00;;
45932;SDS011;51011;46.790;17.184;2022-07-06T07:59:51;3.88;;;3.00;;
45932;SDS011;51011;46.790;17.184;2022-07-06T08:02:21;5.05;;;3.10;;
45932;SDS011;51011;46.790;17.184;2022-07-06T08:04:47;3.80;;;2.90;;
45932;SDS011;51011;46.790;17.184;2022-07-06T08:07:12;4.93;;;3.17;;
45932;SDS011;51011;46.790;17.184;2022-07-06T08:09:38;3.20;;;2.90;;
45932;SDS011;51011;46.790;17.184;2022-07-06T08:12:04;5.72;;;3.00;;
45932;SDS011;51011;46.790;17.184;2022-07-06T08:14:29;6.60;;;3.05;;
45932;SDS011;51011;46.790;17.184;2022-07-06T08:16:56;4.53;;;3.05;;
45932;SDS011;51011;46.790;17.184;2022-07-06T08:19:22;3.88;;;2.90;;
45932;SDS011;51011;46.790;17.184;2022-07-06T08:21:47;4.13;;;2.58;;
45932;SDS011;51011;46.790;17.184;2022-07-06T08:24:13;5.20;;;2.60;;
45932;SDS011;51011;46.790;17.184;2022-07-06T08:26:38;4.55;;;2.67;;
45932;SDS011;51011;46.790;17.184;2022-07-06T08:29:04;4.90;;;3.38;;
45932;SDS011;51011;46.790;17.184;2022-07-06T08:31:30;4.93;;;2.40;;
45932;SDS011;51011;46.790;17.184;2022-07-06T08:33:59;2.60;;;2.38;;
45932;SDS011;51011;46.790;17.184;2022-07-06T08:36:25;5.30;;;2.55;;
45932;SDS011;51011;46.790;17.184;2022-07-06T08:38:51;4.72;;;2.70;;
45932;SDS011;51011;46.790;17.184;2022-07-06T08:41:16;3.97;;;2.40;;
45932;SDS011;51011;46.790;17.184;2022-07-06T08:43:43;6.22;;;2.53;;
45932;SDS011;51011;46.790;17.184;2022-07-06T08:46:09;4.28;;;2.60;;
45932;SDS011;51011;46.790;17.184;2022-07-06T08:48:35;5.93;;;2.60;;
45932;SDS011;51011;46.790;17.184;2022-07-06T08:51:01;3.55;;;2.50;;
45932;SDS011;51011;46.790;17.184;2022-07-06T08:53:27;3.88;;;2.30;;
45932;SDS011;51011;46.790;17.184;2022-07-06T08:55:53;4.88;;;2.72;;
45932;SDS011;51011;46.790;17.184;2022-07-06T08:58:19;2.83;;;2.20;;
45932;SDS011;51011;46.790;17.184;2022-07-06T09:00:47;3.38;;;2.30;;
45932;SDS011;51011;46.790;17.184;2022-07-06T09:03:13;3.78;;;2.28;;
45932;SDS011;51011;46.790;17.184;2022-07-06T09:05:39;6.97;;;2.70;;
45932;SDS011;51011;46.790;17.184;2022-07-06T09:08:05;3.97;;;2.20;;
45932;SDS011;51011;46.790;17.184;2022-07-06T09:10:30;3.38;;;2.30;;
45932;SDS011;51011;46.790;17.184;2022-07-06T09:13:03;4.15;;;2.30;;
45932;SDS011;51011;46.790;17.184;2022-07-06T09:15:30;4.03;;;2.33;;
45932;SDS011;51011;46.790;17.184;2022-07-06T09:17:56;4.50;;;2.60;;
45932;SDS011;51011;46.790;17.184;2022-07-06T09:20:22;4.28;;;2.40;;
45932;SDS011;51011;46.790;17.184;2022-07-06T09:22:48;4.72;;;2.25;;
45932;SDS011;51011;46.790;17.184;2022-07-06T09:25:15;4.00;;;2.25;;
45932;SDS011;51011;46.790;17.184;2022-07-06T09:27:42;4.32;;;2.50;;
45932;SDS011;51011;46.790;17.184;2022-07-06T09:30:13;3.80;;;2.30;;
45932;SDS011;51011;46.790;17.184;2022-07-06T09:32:46;2.58;;;2.20;;
45932;SDS011;51011;46.790;17.184;2022-07-06T09:35:19;3.13;;;2.38;;
45932;SDS011;51011;46.790;17.184;2022-07-06T09:40:34;5.72;;;2.35;;
45932;SDS011;51011;46.790;17.184;2022-07-06T09:43:14;4.05;;;2.40;;
45932;SDS011;51011;46.790;17.184;2022-07-06T09:45:45;2.97;;;2.40;;
45932;SDS011;51011;46.790;17.184;2022-07-06T09:48:14;4.63;;;2.40;;
45932;SDS011;51011;46.790;17.184;2022-07-06T09:50:49;3.60;;;2.58;;
45932;SDS011;51011;46.790;17.184;2022-07-06T09:53:18;2.58;;;2.30;;
45932;SDS011;51011;46.790;17.184;2022-07-06T09:55:45;3.70;;;2.35;;
45932;SDS011;51011;46.790;17.184;2022-07-06T09:58:12;3.20;;;2.42;;
45932;SDS011;51011;46.790;17.184;2022-07-06T10:00:38;3.65;;;2.30;;
45932;SDS011;51011;46.790;17.184;2022-07-06T10:03:04;4.47;;;2.58;;
45932;SDS011;51011;46.790;17.184;2022-07-06T10:05:30;2.35;;;2.15;;
45932;SDS011;51011;46.790;17.184;2022-07-06T10:08:00;3.47;;;2.80;;
45932;SDS011;51011;46.790;17.184;2022-07-06T10:10:26;5.10;;;2.60;;
45932;SDS011;51011;46.790;17.184;2022-07-06T10:12:54;4.80;;;2.50;;
45932;SDS011;51011;46.790;17.184;2022-07-06T10:15:21;3.45;;;2.53;;
45932;SDS011;51011;46.790;17.184;2022-07-06T10:17:54;5.70;;;2.60;;
45932;SDS011;51011;46.790;17.184;2022-07-06T10:20:20;5.15;;;2.80;;
45932;SDS011;51011;46.790;17.184;2022-07-06T10:22:49;3.83;;;2.30;;
45932;SDS011;51011;46.790;17.184;2022-07-06T10:25:16;3.63;;;2.50;;
45932;SDS011;51011;46.790;17.184;2022-07-06T10:27:42;2.60;;;2.40;;
45932;SDS011;51011;46.790;17.184;2022-07-06T10:30:08;4.63;;;2.85;;
45932;SDS011;51011;46.790;17.184;2022-07-06T10:32:35;6.63;;;2.72;;
45932;SDS011;51011;46.790;17.184;2022-07-06T10:35:02;5.75;;;2.70;;
45932;SDS011;51011;46.790;17.184;2022-07-06T10:37:27;2.83;;;2.40;;
45932;SDS011;51011;46.790;17.184;2022-07-06T10:39:54;2.83;;;2.45;;
45932;SDS011;51011;46.790;17.184;2022-07-06T10:45:20;5.10;;;2.47;;
45932;SDS011;51011;46.790;17.184;2022-07-06T10:53:15;4.55;;;2.45;;
45932;SDS011;51011;46.790;17.184;2022-07-06T10:55:42;8.15;;;2.65;;
45932;SDS011;51011;46.790;17.184;2022-07-06T10:58:10;2.70;;;2.50;;
45932;SDS011;51011;46.790;17.184;2022-07-06T11:00:55;6.57;;;2.60;;
45932;SDS011;51011;46.790;17.184;2022-07-06T11:06:08;3.58;;;2.65;;
45932;SDS011;51011;46.790;17.184;2022-07-06T11:08:51;4.15;;;2.40;;
45932;SDS011;51011;46.790;17.184;2022-07-06T11:11:17;4.07;;;2.47;;
45932;SDS011;51011;46.790;17.184;2022-07-06T11:13:59;3.83;;;2.50;;
45932;SDS011;51011;46.790;17.184;2022-07-06T11:26:54;4.10;;;2.15;;
45932;SDS011;51011;46.790;17.184;2022-07-06T11:29:21;4.53;;;2.40;;
45932;SDS011;51011;46.790;17.184;2022-07-06T11:31:47;2.88;;;2.35;;
45932;SDS011;51011;46.790;17.184;2022-07-06T11:34:18;4.10;;;2.35;;
45932;SDS011;51011;46.790;17.184;2022-07-06T11:36:45;3.58;;;2.38;;
45932;SDS011;51011;46.790;17.184;2022-07-06T11:39:10;3.22;;;2.28;;
45932;SDS011;51011;46.790;17.184;2022-07-06T11:41:37;3.45;;;2.35;;
45932;SDS011;51011;46.790;17.184;2022-07-06T11:44:02;2.80;;;2.00;;
45932;SDS011;51011;46.790;17.184;2022-07-06T11:46:32;3.60;;;2.50;;
45932;SDS011;51011;46.790;17.184;2022-07-06T11:49:03;3.80;;;2.30;;
45932;SDS011;51011;46.790;17.184;2022-07-06T11:51:31;3.70;;;2.50;;
45932;SDS011;51011;46.790;17.184;2022-07-06T11:54:02;3.88;;;2.65;;
45932;SDS011;51011;46.790;17.184;2022-07-06T11:57:00;6.93;;;2.40;;
45932;SDS011;51011;46.790;17.184;2022-07-06T12:04:27;2.58;;;2.20;;
45932;SDS011;51011;46.790;17.184;2022-07-06T12:06:53;3.03;;;2.40;;
45932;SDS011;51011;46.790;17.184;2022-07-06T12:09:19;3.33;;;2.33;;
45932;SDS011;51011;46.790;17.184;2022-07-06T12:11:46;5.40;;;2.50;;
45932;SDS011;51011;46.790;17.184;2022-07-06T12:14:16;3.35;;;2.30;;
45932;SDS011;51011;46.790;17.184;2022-07-06T12:16:42;3.33;;;2.00;;
45932;SDS011;51011;46.790;17.184;2022-07-06T12:19:08;3.15;;;2.08;;
45932;SDS011;51011;46.790;17.184;2022-07-06T12:21:36;3.92;;;2.17;;
45932;SDS011;51011;46.790;17.184;2022-07-06T12:24:07;4.70;;;2.40;;
45932;SDS011;51011;46.790;17.184;2022-07-06T12:26:39;4.63;;;2.38;;
45932;SDS011;51011;46.790;17.184;2022-07-06T12:29:06;3.88;;;2.50;;
45932;SDS011;51011;46.790;17.184;2022-07-06T12:31:39;5.22;;;2.45;;
45932;SDS011;51011;46.790;17.184;2022-07-06T12:34:15;5.15;;;2.53;;
45932;SDS011;51011;46.790;17.184;2022-07-06T12:39:19;3.50;;;2.50;;
45932;SDS011;51011;46.790;17.184;2022-07-06T12:41:50;2.55;;;2.10;;
45932;SDS011;51011;46.790;17.184;2022-07-06T12:44:17;2.78;;;2.38;;
45932;SDS011;51011;46.790;17.184;2022-07-06T12:46:45;4.82;;;2.40;;
45932;SDS011;51011;46.790;17.184;2022-07-06T12:49:12;3.85;;;2.33;;
45932;SDS011;51011;46.790;17.184;2022-07-06T12:51:59;3.58;;;2.30;;
45932;SDS011;51011;46.790;17.184;2022-07-06T12:54:34;3.88;;;2.60;;
45932;SDS011;51011;46.790;17.184;2022-07-06T12:57:13;3.90;;;2.47;;
45932;SDS011;51011;46.790;17.184;2022-07-06T13:04:59;3.38;;;2.50;;
45932;SDS011;51011;46.790;17.184;2022-07-06T13:07:29;3.67;;;2.67;;
45932;SDS011;51011;46.790;17.184;2022-07-06T13:09:57;5.00;;;2.83;;
45932;SDS011;51011;46.790;17.184;2022-07-06T13:12:23;4.53;;;2.70;;
45932;SDS011;51011;46.790;17.184;2022-07-06T13:14:49;4.13;;;2.75;;
45932;SDS011;51011;46.790;17.184;2022-07-06T13:17:14;3.42;;;2.60;;
45932;SDS011;51011;46.790;17.184;2022-07-06T13:19:40;2.70;;;2.50;;
45932;SDS011;51011;46.790;17.184;2022-07-06T13:22:05;2.60;;;2.40;;
45932;SDS011;51011;46.790;17.184;2022-07-06T13:24:31;3.30;;;2.30;;
45932;SDS011;51011;46.790;17.184;2022-07-06T13:26:57;3.60;;;2.20;;
45932;SDS011;51011;46.790;17.184;2022-07-06T13:29:23;5.40;;;2.25;;
45932;SDS011;51011;46.790;17.184;2022-07-06T13:31:49;4.88;;;2.22;;
45932;SDS011;51011;46.790;17.184;2022-07-06T13:34:15;3.53;;;2.60;;
45932;SDS011;51011;46.790;17.184;2022-07-06T13:36:40;3.17;;;2.30;;
45932;SDS011;51011;46.790;17.184;2022-07-06T13:39:06;2.88;;;2.50;;
45932;SDS011;51011;46.790;17.184;2022-07-06T13:41:33;4.00;;;2.40;;
45932;SDS011;51011;46.790;17.184;2022-07-06T13:43:59;3.85;;;2.40;;
45932;SDS011;51011;46.790;17.184;2022-07-06T13:46:26;5.45;;;2.50;;
45932;SDS011;51011;46.790;17.184;2022-07-06T13:48:52;3.05;;;2.50;;
45932;SDS011;51011;46.790;17.184;2022-07-06T13:51:18;3.72;;;2.70;;
45932;SDS011;51011;46.790;17.184;2022-07-06T13:53:43;4.07;;;2.90;;
45932;SDS011;51011;46.790;17.184;2022-07-06T13:56:09;5.03;;;2.78;;
45932;SDS011;51011;46.790;17.184;2022-07-06T13:58:35;6.22;;;2.70;;
45932;SDS011;51011;46.790;17.184;2022-07-06T14:01:01;5.35;;;3.13;;
45932;SDS011;51011;46.790;17.184;2022-07-06T14:03:26;3.55;;;2.80;;
45932;SDS011;51011;46.790;17.184;2022-07-06T14:06:04;4.47;;;2.72;;
45932;SDS011;51011;46.790;17.184;2022-07-06T14:08:34;4.30;;;2.50;;
45932;SDS011;51011;46.790;17.184;2022-07-06T14:11:00;3.67;;;2.40;;
45932;SDS011;51011;46.790;17.184;2022-07-06T14:13:26;6.97;;;2.28;;
45932;SDS011;51011;46.790;17.184;2022-07-06T14:15:52;4.25;;;2.28;;
45932;SDS011;51011;46.790;17.184;2022-07-06T14:18:18;4.50;;;2.47;;
45932;SDS011;51011;46.790;17.184;2022-07-06T14:20:44;4.03;;;2.47;;
45932;SDS011;51011;46.790;17.184;2022-07-06T14:23:11;6.20;;;2.60;;
45932;SDS011;51011;46.790;17.184;2022-07-06T14:25:37;5.72;;;2.80;;
45932;SDS011;51011;46.790;17.184;2022-07-06T14:28:03;4.40;;;2.42;;
45932;SDS011;51011;46.790;17.184;2022-07-06T14:30:29;5.57;;;2.40;;
45932;SDS011;51011;46.790;17.184;2022-07-06T14:32:55;2.60;;;2.15;;
45932;SDS011;51011;46.790;17.184;2022-07-06T14:35:21;5.07;;;2.40;;
45932;SDS011;51011;46.790;17.184;2022-07-06T14:37:47;2.60;;;2.20;;
45932;SDS011;51011;46.790;17.184;2022-07-06T14:40:13;6.20;;;2.42;;
45932;SDS011;51011;46.790;17.184;2022-07-06T14:42:38;2.80;;;1.73;;
45932;SDS011;51011;46.790;17.184;2022-07-06T14:45:04;3.25;;;2.20;;
45932;SDS011;51011;46.790;17.184;2022-07-06T14:47:30;3.75;;;2.35;;
45932;SDS011;51011;46.790;17.184;2022-07-06T14:49:55;3.33;;;2.13;;
45932;SDS011;51011;46.790;17.184;2022-07-06T14:52:21;3.45;;;2.10;;
45932;SDS011;51011;46.790;17.184;2022-07-06T14:54:47;3.90;;;2.38;;
45932;SDS011;51011;46.790;17.184;2022-07-06T14:57:12;4.03;;;2.17;;
45932;SDS011;51011;46.790;17.184;2022-07-06T14:59:38;3.17;;;2.17;;
45932;SDS011;51011;46.790;17.184;2022-07-06T15:02:03;3.05;;;2.35;;
45932;SDS011;51011;46.790;17.184;2022-07-06T15:04:29;3.20;;;2.15;;
45932;SDS011;51011;46.790;17.184;2022-07-06T15:06:54;2.80;;;2.05;;
45932;SDS011;51011;46.790;17.184;2022-07-06T15:09:20;5.95;;;2.80;;